Flight Track Log - Related Links

Times and Time Zones

All times are in EST time to prevent confusion due to time zone crossing. See the RSP305 flight status page for this flight to view local times or setup timezone preferences in your user account.

Time Position Orientation Groundspeed Altitude Reporting Facility
EST Latitude Longitude Course Direction KTS MPH feet Rate Location/Type
Mon 04:18:27 PM 36.1011 -115.1547 35° Northeast 140 161 3,000  Level Los Angeles Center
Mon 04:19:09 PM 36.1267 -115.1328 35° Northeast 167 192 4,100 1,922 Climbing Los Angeles Center
Mon 04:20:10 PM 36.1344 -115.0692 81° East 195 224 6,300 2,156 Climbing Los Angeles Center
Mon 04:20:13 PM 36.1339 -115.0653 100° East 193 222 6,400 2,164 Climbing Los Angeles Center
Mon 04:21:11 PM 36.1414 -114.9922 83° East 216 249 8,500 2,032 Climbing Los Angeles Center
Mon 04:21:15 PM 36.1417 -114.9925 321° Northwest 209 241 8,500 1,964 Level Los Angeles Center
Mon 04:22:06 PM 36.1494 -114.9203 82° East 230 265 10,300 2,129 Climbing Los Angeles Center
Mon 04:22:17 PM 36.1508 -114.9067 83° East 232 267 10,700 1,967 Climbing Los Angeles Center
Mon 04:23:07 PM 36.1572 -114.8378 83° East 241 277 12,300 1,524 Climbing Los Angeles Center
Mon 04:23:20 PM 36.1569 -114.8350 97° East 241 277 12,300 1,545 Level Los Angeles Center
Mon 04:24:13 PM 36.1733 -114.7442 77° East 265 305 14,000 1,869 Climbing Los Angeles Center
Mon 04:24:21 PM 36.1753 -114.7308 80° East 257 296 14,200 1,690 Climbing Los Angeles Center
Mon 04:25:24 PM 36.1631 -114.6406 99° East 271 312 16,000 1,680 Climbing Los Angeles Center
Mon 04:26:26 PM 36.0981 -114.5792 143° Southeast 288 331 17,700 1,694 Climbing Los Angeles Center
Mon 04:27:28 PM 36.0311 -114.5186 144° Southeast 295 339 19,500 1,548 Climbing Los Angeles Center
Mon 04:28:30 PM 35.9958 -114.4269 115° Southeast 306 352 20,900 1,403 Climbing Los Angeles Center
Mon 04:29:32 PM 35.9858 -114.3239 97° East 304 350 22,400 1,016 Climbing Los Angeles Center
Mon 04:30:34 PM 35.9664 -114.1925 100° East 319 367 23,000 823 Climbing Los Angeles Center
Mon 04:31:36 PM 35.9481 -114.0722 101° East 347 399 24,100 1,296 Climbing Los Angeles Center
Mon 04:32:39 PM 35.9314 -113.9572 100° East 346 398 25,700 1,344 Climbing Los Angeles Center
Mon 04:33:41 PM 35.9153 -113.8467 100° East 334 384 26,900 1,113 Climbing Los Angeles Center
Mon 04:34:43 PM 35.8961 -113.7300 101° East 342 394 28,000 1,147 Climbing Los Angeles Center
Mon 04:35:57 PM 35.8739 -113.5900 101° East 345 397 29,500 1,226 Climbing Los Angeles Center
Mon 04:37:00 PM 35.8517 -113.4589 102° East 350 403 30,800 1,248 Climbing Los Angeles Center
Mon 04:38:02 PM 35.8333 -113.3431 101° East 348 400 32,100 1,210 Climbing Los Angeles Center
Mon 04:39:04 PM 35.8153 -113.2297 101° East 341 392 33,300 1,065 Climbing Los Angeles Center
Mon 04:40:06 PM 35.7931 -113.0919 101° East 341 392 34,300 823 Climbing Los Angeles Center
Mon 04:41:08 PM 35.7744 -112.9761 101° East 344 396 35,000 629 Climbing Los Angeles Center
Mon 04:42:10 PM 35.7556 -112.8592 101° East 347 399 35,600 532 Climbing Los Angeles Center
Mon 04:43:12 PM 35.7356 -112.7406 102° East 350 403 36,100 528 Climbing Los Angeles Center
Mon 04:44:15 PM 35.7164 -112.6236 101° East 349 402 36,700 295 Climbing Los Angeles Center
Mon 04:46:15 PM 35.6792 -112.3853 101° East 355 409 37,000 97 Climbing Albuquerque Center
Mon 04:47:21 PM 35.6667 -112.2319 96° East 375 432 37,000  Level Los Angeles Center
Mon 04:48:23 PM 35.6556 -112.1003 96° East 384 442 37,000  Level Los Angeles Center
Mon 04:49:25 PM 35.6439 -111.9675 96° East 390 449 37,000  Level Los Angeles Center
Mon 04:50:27 PM 35.6319 -111.8331 96° East 394 453 37,000  Level Los Angeles Center
Mon 04:51:25 PM 35.6192 -111.7008 97° East 391 450 37,000  Level Albuquerque Center
Mon 04:52:27 PM 35.6067 -111.5703 97° East 388 447 37,000  Level Albuquerque Center
Mon 04:53:29 PM 35.5939 -111.4158 96° East 384 442 37,000  Level Albuquerque Center
Mon 04:54:31 PM 35.5839 -111.2925 96° East 382 440 37,000  Level Albuquerque Center
Mon 04:55:33 PM 35.5706 -111.1675 97° East 383 441 37,000  Level Albuquerque Center
Mon 04:56:35 PM 35.5583 -111.0253 96° East 378 435 37,000  Level Albuquerque Center
Mon 04:57:38 PM 35.5453 -110.9022 97° East 378 435 37,000  Level Albuquerque Center
Mon 04:58:40 PM 35.5325 -110.7592 96° East 378 435 37,000  Level Albuquerque Center
Mon 04:59:42 PM 35.5197 -110.6364 97° East 378 435 37,000  Level Albuquerque Center
Mon 05:00:44 PM 35.5058 -110.4928 97° East 379 436 37,000  Level Albuquerque Center
Mon 05:01:46 PM 35.4942 -110.3714 97° East 377 434 37,000  Level Albuquerque Center
Mon 05:02:48 PM 35.4811 -110.2283 96° East 377 434 37,000  Level Albuquerque Center
Mon 05:03:50 PM 35.4678 -110.1056 98° East 378 435 37,000  Level Albuquerque Center
Mon 05:04:52 PM 35.4533 -109.9628 97° East 379 436 37,000  Level Albuquerque Center
Mon 05:05:54 PM 35.4411 -109.8414 97° East 377 434 37,000  Level Albuquerque Center
Mon 05:06:56 PM 35.4269 -109.6981 97° East 379 436 37,000  Level Albuquerque Center
Mon 05:07:58 PM 35.4142 -109.5758 97° East 378 435 37,000  Level Albuquerque Center
Mon 05:09:00 PM 35.3969 -109.4292 98° East 386 444 37,000  Level Albuquerque Center
Mon 05:10:02 PM 35.3836 -109.3053 97° East 387 445 37,000  Level Albuquerque Center
Mon 05:11:04 PM 35.3681 -109.1625 98° East 382 440 37,000  Level Albuquerque Center
Mon 05:12:07 PM 35.3544 -109.0392 98° East 382 440 37,000  Level Albuquerque Center
Mon 05:13:09 PM 35.3383 -108.8953 98° East 382 440 37,000  Level Albuquerque Center
Mon 05:14:11 PM 35.3239 -108.7717 98° East 383 441 37,000  Level Albuquerque Center
Mon 05:15:13 PM 35.3075 -108.6281 98° East 383 441 37,000  Level Albuquerque Center
Mon 05:16:15 PM 35.2928 -108.5050 98° East 383 441 37,000  Level Albuquerque Center
Mon 05:17:17 PM 35.2767 -108.3569 98° East 389 448 37,000  Level Albuquerque Center
Mon 05:18:19 PM 35.2625 -108.2325 98° East 387 445 37,000  Level Albuquerque Center
Mon 05:19:21 PM 35.2475 -108.1081 98° East 388 447 37,000  Level Albuquerque Center
Mon 05:20:23 PM 35.2306 -107.9631 98° East 387 445 37,000  Level Albuquerque Center
Mon 05:21:25 PM 35.2147 -107.8392 99° East 386 444 37,000  Level Albuquerque Center
Mon 05:22:27 PM 35.1975 -107.6950 98° East 385 443 37,000  Level Albuquerque Center
Mon 05:23:29 PM 35.1808 -107.5703 99° East 386 444 37,000  Level Albuquerque Center
Mon 05:24:31 PM 35.1653 -107.4231 97° East 391 450 37,000  Level Albuquerque Center
Mon 05:25:33 PM 35.1481 -107.2992 100° East 387 445 37,000  Level Albuquerque Center
Mon 05:26:35 PM 35.1294 -107.1522 99° East 385 443 37,000  Level Albuquerque Center
Mon 05:27:37 PM 35.1119 -107.0236 99° East 384 442 37,000  Level Albuquerque Center
Mon 05:28:39 PM 35.0936 -106.8847 99° East 385 443 37,000  Level Albuquerque Center
Mon 05:29:41 PM 35.0781 -106.7567 98° East 383 441 37,000  Level Albuquerque Center
Mon 05:30:43 PM 35.0606 -106.6244 99° East 393 452 37,000  Level Albuquerque Center
Mon 05:31:45 PM 35.0417 -106.4908 100° East 398 458 37,000  Level Albuquerque Center
Mon 05:32:47 PM 35.0231 -106.3567 100° East 403 464 37,000  Level Albuquerque Center
Mon 05:33:49 PM 35.0058 -106.2231 99° East 401 461 37,000  Level Albuquerque Center
Mon 05:34:51 PM 34.9833 -106.0622 100° East 403 464 37,000  Level Albuquerque Center
Mon 05:35:53 PM 34.9647 -105.9281 100° East 404 465 37,000  Level Albuquerque Center
Mon 05:36:55 PM 34.9458 -105.7956 100° East 400 460 37,000  Level Albuquerque Center
Mon 05:37:57 PM 34.9269 -105.6625 100° East 400 460 37,000  Level Albuquerque Center
Mon 05:38:59 PM 34.9072 -105.5250 100° East 403 464 37,000  Level Albuquerque Center
Mon 05:40:00 PM 34.8881 -105.3889 100° East 405 466 37,000  Level Albuquerque Center
Mon 05:41:02 PM 34.8653 -105.2300 100° East 406 467 37,000  Level Albuquerque Center
Mon 05:42:04 PM 34.8456 -105.0942 100° East 405 466 37,000  Level Albuquerque Center
Mon 05:43:06 PM 34.8250 -104.9583 100° East 406 467 37,000  Level Albuquerque Center
Mon 05:44:08 PM 34.8056 -104.8206 100° East 410 472 37,000  Level Albuquerque Center
Mon 05:45:10 PM 34.7839 -104.6833 101° East 411 473 37,000  Level Albuquerque Center
Mon 05:46:11 PM 34.7644 -104.5444 100° East 414 476 37,000  Level Albuquerque Center
Mon 05:47:13 PM 34.7431 -104.4042 100° East 419 482 37,000  Level Albuquerque Center
Mon 05:48:15 PM 34.7181 -104.2394 100° East 423 487 37,000  Level Albuquerque Center
Mon 05:49:17 PM 34.6972 -104.0972 100° East 424 488 37,000  Level Albuquerque Center
Mon 05:50:19 PM 34.6739 -103.9533 101° East 430 495 37,000  Level Albuquerque Center
Mon 05:51:20 PM 34.6517 -103.8097 101° East 431 496 37,000  Level Albuquerque Center
Mon 05:52:22 PM 34.6289 -103.6647 101° East 433 498 37,000  Level Albuquerque Center
Mon 05:53:24 PM 34.6067 -103.5228 101° East 430 495 37,000  Level Albuquerque Center
Mon 05:54:26 PM 34.5833 -103.3783 101° East 432 497 37,000  Level Albuquerque Center
Mon 05:55:28 PM 34.5561 -103.2128 101° East 429 494 37,000  Level Albuquerque Center
Mon 05:56:29 PM 34.5322 -103.0683 101° East 431 496 37,000  Level Albuquerque Center
Mon 05:57:31 PM 34.5086 -102.9256 101° East 431 496 37,000  Level Albuquerque Center
Mon 05:58:33 PM 34.4858 -102.7781 101° East 434 499 37,000  Level Albuquerque Center
Mon 05:59:35 PM 34.4736 -102.6322 96° East 437 503 37,000 49 Level Albuquerque Center
Mon 06:00:36 PM 34.4583 -102.4856 97° East 440 506 37,100 488 Climbing Albuquerque Center
Mon 06:01:38 PM 34.4431 -102.3417 97° East 437 503 38,000 919 Climbing Albuquerque Center
Mon 06:02:40 PM 34.4286 -102.2036 97° East 426 490 39,000 484 Climbing Albuquerque Center
Mon 06:03:42 PM 34.4108 -102.0383 97° East 418 481 39,000  Level Albuquerque Center
Mon 06:04:43 PM 34.3958 -101.8989 97° East 419 482 39,000  Level Albuquerque Center
Mon 06:05:45 PM 34.3803 -101.7553 97° East 425 489 39,000  Level Albuquerque Center
Mon 06:06:47 PM 34.3633 -101.6108 98° East 432 497 39,000  Level Albuquerque Center
Mon 06:07:45 PM 34.3475 -101.4681 98° East 430 495 39,000  Level Fort Worth Center
Mon 06:08:47 PM 34.3328 -101.3256 97° East 430 495 39,000  Level Fort Worth Center
Mon 06:09:49 PM 34.3161 -101.1856 98° East 426 490 39,000  Level Fort Worth Center
Mon 06:10:51 PM 34.3006 -101.0467 98° East 422 486 39,000  Level Fort Worth Center
Mon 06:11:53 PM 34.2806 -100.8803 98° East 420 483 39,000  Level Fort Worth Center
Mon 06:12:55 PM 34.2636 -100.7419 98° East 418 481 39,000  Level Fort Worth Center
Mon 06:13:56 PM 34.2469 -100.6028 98° East 420 483 39,000  Level Fort Worth Center
Mon 06:14:58 PM 34.2303 -100.4625 98° East 422 486 39,000  Level Fort Worth Center
Mon 06:16:00 PM 34.2136 -100.3283 99° East 424 488 39,000  Level Fort Worth Center
Mon 06:17:02 PM 34.1806 -100.1653 104° East 416 479 39,000 -48 Level Fort Worth Center
Mon 06:18:04 PM 34.1467 -100.0339 107° East 410 472 38,900 -387 Descending Fort Worth Center
Mon 06:19:06 PM 34.1108 -99.8994 108° East 418 481 38,200 -774 Descending Fort Worth Center
Mon 06:20:08 PM 34.0739 -99.7603 108° East 428 493 37,300 -871 Descending Fort Worth Center
Mon 06:21:10 PM 34.0367 -99.6211 108° East 432 497 36,400 -871 Descending Fort Worth Center
Mon 06:22:12 PM 33.9983 -99.4811 108° East 436 502 35,500 -726 Descending Fort Worth Center
Mon 06:23:14 PM 33.9614 -99.3419 108° East 436 502 34,900 -1,258 Descending Fort Worth Center
Mon 06:24:16 PM 33.9133 -99.1658 108° East 456 525 32,900 -1,403 Descending Fort Worth Center
Mon 06:25:18 PM 33.8775 -99.0350 108° East 459 528 32,000 -919 Descending Fort Worth Center
Mon 06:26:20 PM 33.8375 -98.8903 108° East 458 527 31,000 -968 Descending Fort Worth Center
Mon 06:27:22 PM 33.7892 -98.7197 109° East 452 520 30,000 -823 Descending Fort Worth Center
Mon 06:28:24 PM 33.7508 -98.5789 108° East 447 514 29,300 -968 Descending Fort Worth Center
Mon 06:29:26 PM 33.7111 -98.4408 109° East 439 505 28,000 -1,790 Descending Fort Worth Center
Mon 06:30:28 PM 33.6719 -98.3019 109° East 440 506 25,600 -2,516 Descending Fort Worth Center
Mon 06:31:30 PM 33.6289 -98.1419 108° East 440 506 22,800 -2,274 Descending Fort Worth Center
Mon 06:32:32 PM 33.5939 -98.0200 109° East 404 465 20,900 -1,935 Descending Fort Worth Center
Mon 06:33:34 PM 33.5594 -97.8906 108° East 374 430 18,800 -1,887 Descending Fort Worth Center
Mon 06:34:36 PM 33.5278 -97.7706 108° East 377 434 17,000 -1,984 Descending Fort Worth Center
Mon 06:35:38 PM 33.4975 -97.6514 107° East 375 432 14,700 -2,177 Descending Fort Worth Center
Mon 06:36:40 PM 33.4656 -97.5283 107° East 361 415 12,500 -1,935 Descending Fort Worth Center
Mon 06:37:42 PM 33.4214 -97.4361 120° Southeast 326 375 10,700 -1,854 Descending Fort Worth Center
Mon 06:38:43 PM 33.3811 -97.3458 118° Southeast 320 368 8,700 -1,561 Descending Fort Worth Center
Mon 06:39:45 PM 33.3825 -97.2542 89° East 304 350 7,500 -1,161 Descending Fort Worth Center
Mon 06:40:47 PM 33.3825 -97.1497 90° East 289 333 6,300 -1,113 Descending Fort Worth Center
Mon 06:41:49 PM 33.3803 -97.0569 92° East 282 325 5,200 -1,065 Descending Fort Worth Center
Mon 06:42:51 PM 33.3778 -96.9683 92° East 250 288 4,100 -581 Descending Fort Worth Center
Mon 06:43:53 PM 33.3775 -96.9031 90° East 200 230 4,000 -48 Descending Fort Worth Center
Mon 06:44:55 PM 33.3375 -96.8667 143° Southeast 196 226 4,000  Level Fort Worth Center
Mon 06:45:57 PM 33.2856 -96.8378 155° Southeast 191 220 4,000  Level Fort Worth Center
Mon 06:46:58 PM 33.2306 -96.8267 170° South 202 232 4,000  Level Fort Worth Center
Mon 06:48:00 PM 33.1711 -96.8233 177° South 200 230 4,000  Level Fort Worth Center
Mon 06:49:02 PM 33.1256 -96.8031 160° South 176 203 4,000  Level Fort Worth Center
Mon 06:49:36 PM 33.1000 -96.7833 147° Southeast 180 207 4,000  Level Dallas / Fort Worth TRACON
Mon 06:50:36 PM 33.0833 -96.7333 112° Southeast 181 208 4,000  Level Dallas / Fort Worth TRACON
Mon 06:51:36 PM 33.0500 -96.7667 220° Southwest 215 247 4,000 -474 Level Dallas / Fort Worth TRACON
Mon 06:52:30 PM 33.0167 -96.8333 239° Southwest 211 243 3,100 -550 Descending Dallas / Fort Worth TRACON
Mon 06:53:36 PM 32.9833 -96.8833 232° Southwest 203 234 2,900 -500 Descending Dallas / Fort Worth TRACON
Mon 06:54:30 PM 32.9667 -96.9333 248° West 195 224 2,100 -450 Descending Dallas / Fort Worth TRACON
Mon 06:55:36 PM 32.9167 -96.9333 180° South 188 216 2,000 -350 Descending Dallas / Fort Worth TRACON
Mon 06:56:30 PM 32.8833 -96.9000 140° Southeast 158 182 1,400 -632 Descending Dallas / Fort Worth TRACON
Mon 06:57:30 PM 32.8667 -96.8667 121° Southeast 104 120 800 -600 Descending Dallas / Fort Worth TRACON

Login

Don't have an account? Register now (free) for customized features, flight alerts, and more!